Terminal Aerodrome Forecast
Issued by NWS Newport/Morehead City, NC

Home | Current Version | Previous Version | Text Only | Print | Product List | Glossary Off
Versions: 1 2 3 4 5 6 7 8 9 10 11 12 13 14 15 16 17 18 19 20

000
FTUS42 KMHX 031815 AAE
TAFEWN
TAF AMD
KEWN 031815Z 0318/0418 20011KT P6SM SCT080
     FM032300 23009KT P6SM VCTS BKN040CB
     FM040500 VRB04KT 3SM BR OVC025
     FM040700 VRB03KT 2SM BR OVC005
     FM041300 25005KT P6SM OVC007
     FM041400 24006KT P6SM OVC100=

USA.gov is the U.S. government's official web portal to all federal, state and local government web resources and services.